Time;durP1;ratioP1;P1;durP2;ratioP2;P2;SDS_P1;SDS_P2;PMS_P1;PMS_P2;Temp;Humidity;BMP_temperature;BMP_pressure;BME280_temperature;BME280_humidity;BME280_pressure;Samples;Min_cycle;Max_cycle;Signal;HPM_P1;HPM_P2
2022/03/22 00:00:46;;;;;;;31.67;13.38;;;7.30;99.90;;;;;;5096291;28;20021;-73
2022/03/22 00:03:11;;;;;;;31.50;14.10;;;7.30;99.90;;;;;;5095933;28;20024;-73
2022/03/22 00:05:42;;;;;;;38.22;14.35;;;7.30;99.90;;;;;;5095882;28;20024;-73
2022/03/22 00:08:08;;;;;;;38.95;14.27;;;7.30;99.90;;;;;;5095517;28;20103;-74
2022/03/22 00:10:34;;;;;;;32.88;12.68;;;7.30;99.90;;;;;;5095540;28;20017;-73
2022/03/22 00:13:00;;;;;;;34.53;15.35;;;7.30;99.90;;;;;;5094306;28;20119;-74
2022/03/22 00:15:25;;;;;;;35.70;14.57;;;7.40;99.90;;;;;;5095314;28;20024;-73
2022/03/22 00:17:51;;;;;;;35.45;14.05;;;7.30;99.90;;;;;;5095879;28;20020;-73
2022/03/22 00:20:17;;;;;;;34.95;14.30;;;7.30;99.90;;;;;;5095217;28;20016;-73
2022/03/22 00:22:43;;;;;;;31.42;13.75;;;7.30;99.90;;;;;;5095256;28;20073;-73
2022/03/22 00:25:09;;;;;;;33.47;13.55;;;7.20;99.90;;;;;;5094022;28;20020;-74
2022/03/22 00:27:54;;;;;;;29.00;13.40;;;7.30;99.90;;;;;;5095239;28;20020;-74
2022/03/22 00:30:28;;;;;;;33.97;14.35;;;7.20;99.90;;;;;;5094151;28;20529;-74
2022/03/22 00:32:56;;;;;;;36.35;14.30;;;7.20;99.90;;;;;;5095763;28;20028;-74
2022/03/22 00:35:29;;;;;;;34.50;14.38;;;7.20;99.90;;;;;;5095013;28;20028;-74
2022/03/22 00:37:57;;;;;;;36.90;15.20;;;7.10;99.90;;;;;;5094866;28;20031;-74
2022/03/22 00:40:27;;;;;;;42.10;13.18;;;7.10;99.90;;;;;;5094974;28;20034;-73
2022/03/22 00:42:53;;;;;;;33.03;13.63;;;7.10;99.90;;;;;;5095211;28;20020;-73
2022/03/22 00:45:21;;;;;;;35.22;13.45;;;7.00;99.90;;;;;;5094869;28;20492;-73
2022/03/22 00:47:48;;;;;;;33.55;13.77;;;7.00;99.90;;;;;;5095064;28;20016;-73
2022/03/22 00:50:16;;;;;;;34.10;13.68;;;6.90;99.90;;;;;;5094686;28;20091;-73
2022/03/22 00:52:42;;;;;;;29.98;12.85;;;6.90;99.90;;;;;;5094736;28;20031;-73
2022/03/22 00:55:10;;;;;;;31.35;13.15;;;6.80;99.90;;;;;;5094673;28;20031;-74
2022/03/22 00:57:36;;;;;;;33.20;13.48;;;6.80;99.90;;;;;;5093288;28;20043;-73
2022/03/22 01:00:06;;;;;;;33.38;13.43;;;6.70;99.90;;;;;;5094489;28;20104;-73
2022/03/22 01:02:36;;;;;;;34.60;12.30;;;6.80;99.90;;;;;;5094315;28;20023;-74
2022/03/22 01:05:17;;;;;;;33.28;13.00;;;6.70;99.90;;;;;;5095046;28;20488;-73
2022/03/22 01:07:45;;;;;;;29.13;13.15;;;6.70;99.90;;;;;;5094729;28;20028;-74
2022/03/22 01:10:13;;;;;;;31.73;13.77;;;6.70;99.90;;;;;;5093076;28;20020;-73
2022/03/22 01:12:40;;;;;;;38.05;14.73;;;6.60;99.90;;;;;;5093136;28;20024;-73
2022/03/22 01:15:15;;;;;;;39.50;14.85;;;6.60;99.90;;;;;;5094302;28;20028;-74
2022/03/22 01:17:41;;;;;;;32.90;13.18;;;6.50;99.90;;;;;;5092898;28;20485;-74
2022/03/22 01:20:10;;;;;;;34.15;14.80;;;6.50;99.90;;;;;;5094192;28;20024;-73
2022/03/22 01:22:40;;;;;;;36.00;12.63;;;6.40;99.90;;;;;;5094439;28;20013;-73
2022/03/22 01:25:13;;;;;;;28.42;12.13;;;6.40;99.90;;;;;;5094083;28;20056;-73
2022/03/22 01:27:40;;;;;;;39.03;14.60;;;6.40;99.90;;;;;;5094053;28;20035;-73
2022/03/22 01:30:07;;;;;;;28.25;12.88;;;6.40;99.90;;;;;;5094261;28;20031;-73
2022/03/22 01:32:46;;;;;;;33.65;13.57;;;6.40;99.90;;;;;;5092664;28;20067;-74
2022/03/22 01:35:11;;;;;;;29.77;12.50;;;6.30;99.90;;;;;;5094371;28;20027;-73
2022/03/22 01:37:38;;;;;;;28.60;13.20;;;6.30;99.90;;;;;;5094032;28;20024;-74
2022/03/22 01:40:05;;;;;;;30.00;12.25;;;6.30;99.90;;;;;;5093811;28;20050;-73
2022/03/22 01:42:31;;;;;;;32.30;13.90;;;6.20;99.90;;;;;;5093757;28;20020;-74
2022/03/22 01:44:56;;;;;;;33.33;12.90;;;6.10;99.90;;;;;;5094365;28;20018;-74
2022/03/22 01:47:25;;;;;;;35.38;13.00;;;6.10;99.90;;;;;;5093629;28;20040;-73
2022/03/22 01:49:51;;;;;;;28.40;12.10;;;6.00;99.90;;;;;;5093096;28;20023;-73
2022/03/22 01:52:19;;;;;;;34.25;12.45;;;6.00;99.90;;;;;;5094231;28;20031;-73
2022/03/22 01:54:50;;;;;;;30.15;12.75;;;6.00;99.90;;;;;;5093977;28;20028;-73
2022/03/22 01:57:19;;;;;;;31.88;13.32;;;6.00;99.90;;;;;;5094097;28;20038;-73
2022/03/22 01:59:46;;;;;;;34.08;13.68;;;6.00;99.90;;;;;;5092251;28;20485;-73
2022/03/22 02:07:45;;;;;;;31.20;13.23;;;5.90;99.90;;;;;;5093540;28;20035;-74
2022/03/22 02:10:12;;;;;;;36.55;13.43;;;5.90;99.90;;;;;;5092128;28;20081;-73
2022/03/22 02:12:38;;;;;;;38.67;13.30;;;5.90;99.90;;;;;;5093488;28;20477;-73
2022/03/22 02:15:05;;;;;;;36.58;14.07;;;5.90;99.90;;;;;;5092129;28;20044;-73
2022/03/22 02:17:30;;;;;;;32.22;14.02;;;5.90;99.90;;;;;;5093252;28;20089;-73
2022/03/22 02:19:57;;;;;;;36.67;14.05;;;5.80;99.90;;;;;;5093526;28;20461;-72
2022/03/22 02:22:32;;;;;;;35.85;14.13;;;5.80;99.90;;;;;;5093491;28;20488;-73
2022/03/22 02:24:58;;;;;;;34.33;14.25;;;5.80;99.90;;;;;;5093673;28;20051;-73
2022/03/22 02:27:27;;;;;;;30.45;13.25;;;5.80;99.90;;;;;;5092074;28;20059;-73
2022/03/22 02:29:52;;;;;;;38.13;14.95;;;5.80;99.90;;;;;;5091944;28;20028;-73
2022/03/22 02:32:23;;;;;;;38.80;15.40;;;5.70;99.90;;;;;;5093189;28;20035;-73
2022/03/22 02:34:49;;;;;;;37.53;15.00;;;5.80;99.90;;;;;;5093355;28;20050;-73
2022/03/22 02:37:15;;;;;;;36.20;14.02;;;5.80;99.90;;;;;;5093148;28;20060;-73
2022/03/22 02:39:40;;;;;;;41.63;14.55;;;5.80;99.90;;;;;;5097415;28;20016;-73
2022/03/22 02:42:06;;;;;;;31.70;12.98;;;5.80;99.90;;;;;;5097216;28;20384;-73
2022/03/22 02:44:32;;;;;;;33.38;14.85;;;5.80;99.90;;;;;;5097737;28;20035;-73
2022/03/22 02:46:57;;;;;;;34.08;13.85;;;5.80;99.90;;;;;;5097144;28;20473;-74
2022/03/22 02:49:23;;;;;;;40.17;13.55;;;5.70;99.90;;;;;;5096912;28;20039;-73
2022/03/22 02:51:49;;;;;;;40.85;14.35;;;5.70;99.90;;;;;;5095809;28;20023;-74
2022/03/22 02:54:14;;;;;;;33.85;12.93;;;5.70;99.90;;;;;;5095758;28;20111;-74
2022/03/22 02:56:40;;;;;;;32.33;13.85;;;5.70;99.90;;;;;;5095635;28;20036;-72
2022/03/22 02:59:06;;;;;;;38.10;14.68;;;5.70;99.90;;;;;;5097123;28;20373;-73
2022/03/22 03:01:32;;;;;;;40.33;14.57;;;5.70;99.90;;;;;;5095670;28;20027;-72
2022/03/22 03:04:00;;;;;;;34.83;13.43;;;5.70;99.90;;;;;;5096911;28;20016;-73
2022/03/22 03:06:29;;;;;;;37.60;14.63;;;5.60;99.90;;;;;;5097343;28;20362;-74
2022/03/22 03:08:55;;;;;;;37.03;15.05;;;5.70;99.90;;;;;;5096710;28;20020;-73
2022/03/22 03:11:21;;;;;;;40.08;14.35;;;5.70;99.90;;;;;;5095500;28;20038;-72
2022/03/22 03:16:31;;;;;;;35.70;15.05;;;5.70;99.90;;;;;;5096424;28;20558;-73
2022/03/22 03:18:56;;;;;;;32.03;12.70;;;5.70;99.90;;;;;;5096969;28;20020;-73
2022/03/22 03:21:22;;;;;;;31.92;13.32;;;5.70;99.90;;;;;;5096751;28;20028;-73
2022/03/22 03:23:47;;;;;;;33.30;13.73;;;5.70;99.90;;;;;;5097300;28;20024;-73
2022/03/22 03:26:13;;;;;;;33.47;12.02;;;5.70;99.90;;;;;;5096968;28;20028;-73
2022/03/22 03:28:38;;;;;;;31.98;13.10;;;5.70;99.90;;;;;;5096581;28;20465;-73
2022/03/22 03:31:04;;;;;;;32.88;13.68;;;5.70;99.90;;;;;;5096306;28;20028;-73
2022/03/22 03:33:30;;;;;;;33.42;13.00;;;5.60;99.90;;;;;;5095014;28;20111;-73
2022/03/22 03:35:56;;;;;;;31.40;12.82;;;5.60;99.90;;;;;;5096431;28;20031;-73
2022/03/22 03:38:21;;;;;;;33.47;14.48;;;5.60;99.90;;;;;;5096110;28;20027;-73
2022/03/22 03:43:31;;;;;;;35.88;13.23;;;5.60;99.90;;;;;;5097008;28;20496;-73
2022/03/22 03:48:51;;;;;;;33.55;12.90;;;5.70;99.90;;;;;;5040722;28;20029;-74
2022/03/22 03:51:17;;;;;;;32.40;13.68;;;5.70;99.90;;;;;;5096308;28;20024;-73
2022/03/22 03:53:42;;;;;;;30.42;12.77;;;5.70;99.90;;;;;;5095852;28;20021;-73
2022/03/22 03:56:08;;;;;;;35.20;14.00;;;5.70;99.90;;;;;;5096137;28;20016;-73
2022/03/22 03:58:33;;;;;;;33.33;12.63;;;5.70;99.90;;;;;;5094486;28;20499;-73
2022/03/22 04:00:59;;;;;;;33.58;13.25;;;5.60;99.90;;;;;;5095740;28;20024;-73
2022/03/22 04:03:25;;;;;;;36.08;13.85;;;5.60;99.90;;;;;;5096248;28;20016;-73
2022/03/22 04:05:50;;;;;;;32.97;14.18;;;5.60;99.90;;;;;;5094396;28;20012;-73
2022/03/22 04:08:16;;;;;;;32.03;13.68;;;5.70;99.90;;;;;;5095460;28;20023;-73
2022/03/22 04:10:42;;;;;;;33.60;13.82;;;5.70;99.90;;;;;;5095848;28;20020;-73
2022/03/22 04:13:07;;;;;;;31.17;13.25;;;5.70;99.90;;;;;;5095850;28;20012;-73
2022/03/22 04:15:33;;;;;;;34.20;13.05;;;5.80;99.90;;;;;;5094118;28;20089;-73
2022/03/22 04:17:59;;;;;;;31.98;13.48;;;5.80;99.90;;;;;;5095627;28;20028;-74
2022/03/22 04:20:26;;;;;;;32.80;13.52;;;5.70;99.90;;;;;;5095455;28;20022;-74
2022/03/22 04:22:52;;;;;;;31.90;12.98;;;5.70;99.90;;;;;;5094095;28;20089;-73
2022/03/22 04:25:18;;;;;;;28.42;13.20;;;5.60;99.90;;;;;;5094043;28;20465;-73
2022/03/22 04:33:12;;;;;;;30.05;12.27;;;5.80;99.90;;;;;;5095186;28;20574;-73
2022/03/22 04:35:39;;;;;;;35.15;15.07;;;5.80;99.90;;;;;;5095132;28;20058;-74
2022/03/22 04:38:05;;;;;;;34.15;13.25;;;5.80;99.90;;;;;;5095220;28;20499;-73
2022/03/22 04:40:31;;;;;;;32.90;13.00;;;5.70;99.90;;;;;;5093729;28;20110;-74
2022/03/22 04:42:57;;;;;;;32.60;11.70;;;5.70;99.90;;;;;;5093720;28;20389;-74
2022/03/22 04:45:23;;;;;;;34.85;14.25;;;5.70;99.90;;;;;;5094920;28;20034;-74
2022/03/22 04:47:49;;;;;;;32.58;13.02;;;5.60;99.90;;;;;;5093601;28;20508;-74
2022/03/22 04:50:16;;;;;;;37.90;13.35;;;5.60;99.90;;;;;;5095058;28;20028;-74
2022/03/22 04:58:10;;;;;;;31.67;12.95;;;5.50;99.90;;;;;;5094694;28;20089;-73
2022/03/22 05:00:35;;;;;;;29.80;12.52;;;5.50;99.90;;;;;;5094007;28;20024;-73
2022/03/22 05:03:02;;;;;;;30.17;12.50;;;5.50;99.90;;;;;;5094574;28;20020;-73
2022/03/22 05:08:12;;;;;;;33.75;11.88;;;5.60;99.90;;;;;;5095270;28;20558;-73
2022/03/22 05:10:37;;;;;;;28.88;12.20;;;5.70;99.90;;;;;;5094976;28;20028;-73
2022/03/22 05:13:04;;;;;;;31.80;12.02;;;5.60;99.90;;;;;;5094629;28;20024;-73
2022/03/22 05:15:31;;;;;;;32.65;12.80;;;5.60;99.90;;;;;;5092941;28;20515;-73
2022/03/22 05:17:57;;;;;;;29.48;13.90;;;5.60;99.90;;;;;;5092945;28;20059;-73
2022/03/22 05:20:23;;;;;;;32.95;13.38;;;5.60;99.90;;;;;;5094236;28;20034;-73
2022/03/22 05:22:49;;;;;;;27.17;12.70;;;5.70;99.90;;;;;;5093009;28;20080;-73
2022/03/22 05:25:15;;;;;;;31.90;12.23;;;5.80;99.90;;;;;;5094111;28;20528;-73
2022/03/22 05:27:41;;;;;;;32.53;12.60;;;5.80;99.90;;;;;;5094103;28;20052;-73
2022/03/22 05:30:08;;;;;;;24.60;10.57;;;5.80;99.90;;;;;;5093987;28;20056;-73
2022/03/22 05:32:34;;;;;;;31.50;12.25;;;5.80;99.90;;;;;;5093962;28;20028;-73
2022/03/22 05:35:00;;;;;;;34.03;13.95;;;5.50;99.90;;;;;;5093977;28;20393;-73
2022/03/22 05:37:26;;;;;;;28.42;13.13;;;5.80;99.90;;;;;;5092560;28;20396;-73
2022/03/22 05:39:52;;;;;;;32.47;12.85;;;5.80;99.90;;;;;;5092589;28;20016;-73
2022/03/22 05:42:18;;;;;;;31.15;13.18;;;5.80;99.90;;;;;;5092589;28;20069;-73
2022/03/22 05:44:43;;;;;;;37.75;12.82;;;5.80;99.90;;;;;;5092559;28;20107;-73
2022/03/22 05:47:09;;;;;;;28.42;12.27;;;5.80;99.90;;;;;;5093761;28;20016;-73
2022/03/22 05:49:36;;;;;;;29.73;12.57;;;5.90;99.90;;;;;;5093619;28;20112;-73
2022/03/22 05:52:06;;;;;;;33.25;12.40;;;5.90;99.90;;;;;;5094253;28;20024;-73
2022/03/22 05:54:32;;;;;;;29.17;12.23;;;5.90;99.90;;;;;;5092830;28;20024;-73
2022/03/22 05:56:58;;;;;;;30.75;13.23;;;6.00;99.90;;;;;;5093553;28;20036;-73
2022/03/22 05:59:24;;;;;;;32.15;13.10;;;6.00;99.90;;;;;;5092223;28;20418;-73
2022/03/22 06:01:49;;;;;;;28.00;12.18;;;6.00;99.90;;;;;;5092297;28;20016;-73
2022/03/22 06:04:16;;;;;;;27.10;11.60;;;6.10;99.90;;;;;;5093535;28;20089;-73
2022/03/22 06:06:41;;;;;;;25.35;12.02;;;6.10;99.90;;;;;;5093382;28;20027;-73
2022/03/22 06:09:07;;;;;;;54.95;13.15;;;6.10;99.90;;;;;;5092221;28;20023;-74
2022/03/22 06:11:35;;;;;;;28.85;12.25;;;6.10;99.90;;;;;;5092024;28;20020;-73
2022/03/22 06:14:04;;;;;;;26.77;12.38;;;6.20;99.90;;;;;;5093782;28;20017;-73
2022/03/22 06:16:30;;;;;;;28.10;12.32;;;6.20;99.90;;;;;;5093480;28;20032;-74
2022/03/22 06:18:56;;;;;;;34.22;12.70;;;6.30;99.90;;;;;;5093299;28;20021;-75
2022/03/22 06:21:22;;;;;;;29.45;12.02;;;6.30;99.90;;;;;;5093350;28;20022;-74
2022/03/22 06:23:48;;;;;;;28.83;12.48;;;6.40;99.90;;;;;;5093676;28;20047;-74
2022/03/22 06:26:14;;;;;;;34.42;11.68;;;6.40;99.90;;;;;;5092106;28;20082;-73
2022/03/22 06:28:41;;;;;;;31.17;12.15;;;6.50;99.90;;;;;;5092012;28;20055;-73
2022/03/22 06:31:06;;;;;;;27.15;11.27;;;6.50;99.90;;;;;;5093667;28;20417;-73
2022/03/22 06:33:32;;;;;;;34.63;12.25;;;6.60;99.90;;;;;;5093644;28;20028;-72
2022/03/22 06:35:58;;;;;;;26.42;11.80;;;6.60;99.90;;;;;;5093228;28;20028;-74
2022/03/22 06:38:23;;;;;;;28.20;12.30;;;6.70;99.90;;;;;;5091952;28;20024;-73
2022/03/22 06:40:50;;;;;;;25.15;11.20;;;6.80;99.90;;;;;;5093198;28;20057;-73
2022/03/22 06:43:16;;;;;;;37.25;13.32;;;6.90;99.90;;;;;;5093308;28;20028;-72
2022/03/22 06:45:44;;;;;;;30.50;13.10;;;6.90;99.90;;;;;;5093988;28;20028;-73
2022/03/22 06:48:10;;;;;;;27.92;12.93;;;7.00;99.90;;;;;;5093093;28;20020;-73
2022/03/22 06:50:37;;;;;;;29.42;12.82;;;7.10;99.90;;;;;;5093292;28;20032;-74
2022/03/22 06:53:05;;;;;;;29.98;11.98;;;7.10;99.90;;;;;;5093526;28;20070;-73
2022/03/22 06:55:32;;;;;;;28.50;11.90;;;7.20;99.90;;;;;;5093677;28;20027;-74
2022/03/22 06:57:58;;;;;;;27.42;12.15;;;7.30;99.90;;;;;;5093193;28;20024;-74
2022/03/22 07:00:27;;;;;;;34.40;14.07;;;7.40;99.90;;;;;;5093773;28;20468;-73
2022/03/22 07:02:53;;;;;;;30.75;12.70;;;7.50;99.90;;;;;;5093113;28;20473;-73
2022/03/22 07:05:19;;;;;;;30.17;12.90;;;7.50;99.90;;;;;;5093171;28;20024;-74
2022/03/22 07:07:45;;;;;;;35.50;12.68;;;7.70;99.90;;;;;;5093266;28;20024;-74
2022/03/22 07:10:13;;;;;;;30.15;11.73;;;7.70;99.90;;;;;;5091692;28;20031;-73
2022/03/22 07:13:10;;;;;;;27.15;11.60;;;7.80;99.90;;;;;;5091864;28;20032;-73
2022/03/22 07:15:37;;;;;;;28.08;12.52;;;7.90;99.90;;;;;;5091690;28;20036;-73
2022/03/22 07:18:08;;;;;;;30.63;12.63;;;8.00;99.90;;;;;;5091519;28;20024;-73
2022/03/22 07:20:35;;;;;;;22.20;10.98;;;8.00;99.90;;;;;;5091606;28;20021;-74
2022/03/22 07:23:01;;;;;;;28.05;12.45;;;8.10;99.90;;;;;;5093041;28;20069;-74
2022/03/22 07:25:27;;;;;;;26.38;11.40;;;8.20;99.90;;;;;;5094814;28;20016;-74
2022/03/22 07:27:53;;;;;;;24.70;12.10;;;8.40;99.90;;;;;;5097064;28;20031;-74
2022/03/22 07:30:18;;;;;;;32.33;10.90;;;8.50;99.90;;;;;;5095195;28;20017;-74
2022/03/22 07:32:45;;;;;;;30.17;12.70;;;8.70;99.90;;;;;;5096474;28;20082;-73
2022/03/22 07:35:12;;;;;;;28.13;12.48;;;8.90;99.90;;;;;;5095205;28;20027;-73
2022/03/22 07:37:38;;;;;;;29.95;13.07;;;9.00;99.90;;;;;;5096590;28;20107;-73
2022/03/22 07:40:07;;;;;;;28.08;11.65;;;9.20;99.90;;;;;;5096302;28;20408;-74
2022/03/22 07:42:32;;;;;;;27.98;12.38;;;9.30;99.90;;;;;;5096662;28;20020;-74
2022/03/22 07:45:01;;;;;;;25.80;12.05;;;9.50;99.90;;;;;;5096113;28;20089;-74
2022/03/22 07:47:28;;;;;;;;;;;9.60;99.90;;;;;;5096566;28;20022;-73
2022/03/22 07:55:22;;;;;;;23.77;10.95;;;10.00;99.90;;;;;;5096306;28;20039;-73
2022/03/22 07:57:48;;;;;;;24.85;12.07;;;10.20;99.90;;;;;;5096369;28;20028;-73
2022/03/22 08:00:14;;;;;;;33.72;12.30;;;10.30;99.90;;;;;;5095863;28;20027;-73
2022/03/22 08:02:55;;;;;;;24.50;11.55;;;10.40;99.90;;;;;;5096489;28;20107;-73
2022/03/22 08:05:22;;;;;;;26.13;10.82;;;10.50;99.90;;;;;;5095675;28;20016;-73
2022/03/22 08:07:47;;;;;;;28.90;12.55;;;10.60;99.90;;;;;;5096188;28;20031;-73
2022/03/22 08:10:13;;;;;;;28.13;11.88;;;10.70;99.90;;;;;;5095749;28;20024;-73
2022/03/22 08:12:40;;;;;;;25.80;10.25;;;10.80;99.90;;;;;;5095602;28;20067;-73
2022/03/22 08:15:06;;;;;;;25.25;11.60;;;10.90;99.90;;;;;;5095694;28;20069;-72
2022/03/22 08:17:32;;;;;;;28.85;11.90;;;11.00;99.90;;;;;;5094037;28;20028;-73
2022/03/22 08:19:57;;;;;;;26.50;12.48;;;11.10;99.90;;;;;;5095370;28;20031;-73
2022/03/22 08:22:23;;;;;;;24.55;11.45;;;11.30;99.90;;;;;;5096028;28;20038;-73
2022/03/22 08:24:49;;;;;;;21.50;10.05;;;11.40;99.90;;;;;;5096443;28;20020;-73
2022/03/22 08:27:15;;;;;;;31.40;11.68;;;11.50;99.90;;;;;;5095346;28;20028;-73
2022/03/22 08:29:40;;;;;;;22.27;10.18;;;11.70;99.90;;;;;;5095104;28;20031;-73
2022/03/22 08:32:06;;;;;;;22.98;11.45;;;11.80;99.90;;;;;;5095184;28;20032;-74
2022/03/22 08:34:31;;;;;;;31.50;12.05;;;11.90;99.90;;;;;;5095018;28;20366;-74
2022/03/22 08:36:57;;;;;;;26.83;11.52;;;12.00;99.90;;;;;;5093671;28;20028;-74
2022/03/22 08:39:22;;;;;;;26.67;11.50;;;12.20;99.90;;;;;;5094923;28;20427;-74
2022/03/22 08:41:48;;;;;;;24.63;10.98;;;12.30;99.90;;;;;;5095445;28;20073;-74
2022/03/22 08:44:13;;;;;;;20.58;9.60;;;12.30;99.90;;;;;;5095212;28;20066;-74
2022/03/22 08:46:39;;;;;;;24.52;10.18;;;12.50;99.90;;;;;;5094777;28;20536;-73
2022/03/22 08:49:04;;;;;;;29.13;10.93;;;12.60;99.90;;;;;;5093414;28;20107;-74
2022/03/22 08:51:30;;;;;;;21.08;10.48;;;12.70;99.90;;;;;;5094762;28;20103;-73
2022/03/22 08:53:56;;;;;;;22.60;10.50;;;12.90;99.90;;;;;;5094648;28;20024;-74
2022/03/22 08:56:25;;;;;;;24.27;10.98;;;12.90;99.90;;;;;;5094841;28;20020;-73
2022/03/22 08:58:53;;;;;;;22.02;10.00;;;13.00;99.90;;;;;;5094865;28;20023;-73
2022/03/22 09:01:30;;;;;;;21.08;9.68;;;13.10;99.90;;;;;;5094476;28;20016;-74
2022/03/22 09:06:40;;;;;;;23.67;9.73;;;13.30;99.90;;;;;;5095278;28;20093;-74
2022/03/22 09:09:06;;;;;;;23.55;11.05;;;13.50;99.90;;;;;;5094332;28;20024;-74
2022/03/22 09:11:34;;;;;;;24.52;10.52;;;13.60;99.90;;;;;;5094290;28;20099;-72
2022/03/22 09:14:00;;;;;;;26.08;10.85;;;13.70;98.60;;;;;;5094334;28;20028;-73
2022/03/22 09:16:26;;;;;;;22.60;10.52;;;13.80;99.20;;;;;;5094044;28;20092;-73
2022/03/22 09:18:52;;;;;;;23.63;9.45;;;13.90;99.00;;;;;;5094402;28;20043;-74
2022/03/22 09:21:17;;;;;;;23.73;10.63;;;14.00;98.40;;;;;;5094214;28;20012;-74
2022/03/22 09:23:44;;;;;;;21.90;9.20;;;14.20;97.90;;;;;;5092893;28;20012;-73
2022/03/22 09:26:10;;;;;;;23.30;10.27;;;14.30;97.30;;;;;;5094095;28;20008;-74
2022/03/22 09:28:37;;;;;;;23.52;9.60;;;14.40;97.10;;;;;;5092720;28;20031;-74
2022/03/22 09:31:02;;;;;;;21.73;9.60;;;14.50;96.70;;;;;;5094306;28;20028;-74
2022/03/22 09:33:28;;;;;;;22.48;10.15;;;14.70;95.90;;;;;;5093752;28;20020;-74
2022/03/22 09:35:57;;;;;;;20.20;9.82;;;14.80;95.90;;;;;;5092593;28;20111;-74
2022/03/22 09:38:23;;;;;;;21.30;9.95;;;14.90;94.50;;;;;;5093781;28;20047;-73
2022/03/22 09:40:52;;;;;;;23.98;10.15;;;14.90;94.30;;;;;;5094171;28;20479;-74
2022/03/22 09:43:19;;;;;;;22.15;10.80;;;15.00;94.40;;;;;;5094085;28;20413;-74
2022/03/22 09:45:45;;;;;;;23.70;9.90;;;15.20;93.30;;;;;;5093625;28;20059;-74
2022/03/22 09:48:11;;;;;;;23.02;10.02;;;15.20;93.50;;;;;;5093246;28;20075;-74
2022/03/22 09:53:21;;;;;;;25.98;10.88;;;15.50;93.30;;;;;;5093730;28;20124;-74
2022/03/22 09:55:47;;;;;;;20.92;9.40;;;15.60;92.40;;;;;;5092664;28;20103;-74
2022/03/22 09:58:13;;;;;;;21.20;9.63;;;15.70;91.10;;;;;;5093390;28;20089;-74
2022/03/22 10:00:38;;;;;;;21.67;10.32;;;15.80;91.20;;;;;;5093785;28;20065;-74
2022/03/22 10:03:05;;;;;;;22.52;12.23;;;15.90;90.40;;;;;;5092281;28;20473;-74
2022/03/22 10:05:30;;;;;;;23.35;10.88;;;16.00;90.30;;;;;;5093539;28;20457;-74
2022/03/22 10:07:58;;;;;;;17.92;8.85;;;16.10;89.10;;;;;;5093431;28;20027;-73
2022/03/22 10:10:24;;;;;;;21.87;10.80;;;16.10;89.70;;;;;;5093463;28;20032;-73
2022/03/22 10:12:58;;;;;;;19.38;10.02;;;16.20;88.40;;;;;;5093411;28;20055;-73
2022/03/22 10:15:37;;;;;;;24.08;9.68;;;16.30;87.60;;;;;;5093345;28;20480;-73
2022/03/22 10:18:08;;;;;;;22.63;10.05;;;16.50;85.80;;;;;;5093290;28;20028;-74
2022/03/22 10:20:36;;;;;;;20.42;9.88;;;15.80;83.40;;;;;;5093432;28;20461;-74
2022/03/22 10:23:05;;;;;;;18.87;8.60;;;16.60;82.40;;;;;;5093332;28;20182;-73
2022/03/22 10:25:32;;;;;;;18.67;9.25;;;16.70;80.80;;;;;;5093294;28;20552;-74
2022/03/22 10:28:00;;;;;;;21.35;9.75;;;16.90;80.80;;;;;;5093236;28;20108;-73
2022/03/22 10:30:27;;;;;;;21.02;9.48;;;16.90;79.00;;;;;;5093733;28;20020;-74
2022/03/22 10:32:52;;;;;;;18.20;8.65;;;16.90;78.80;;;;;;5091825;28;20036;-74
2022/03/22 10:35:28;;;;;;;17.25;8.30;;;16.90;78.60;;;;;;5093594;28;20020;-74
2022/03/22 10:38:06;;;;;;;23.08;9.10;;;17.00;74.50;;;;;;5093055;28;20028;-74
2022/03/22 10:40:40;;;;;;;17.23;8.88;;;17.10;74.70;;;;;;5093220;28;20020;-73
2022/03/22 10:43:08;;;;;;;20.80;8.82;;;17.10;74.00;;;;;;5091939;28;20028;-74
2022/03/22 10:45:46;;;;;;;17.92;9.30;;;17.20;73.50;;;;;;5091749;28;20017;-74
2022/03/22 10:48:19;;;;;;;;;;;17.20;73.00;;;;;;5092039;28;20043;-73
2022/03/22 10:50:49;;;;;;;17.30;8.90;;;17.30;70.50;;;;;;5092953;28;19904;-74
2022/03/22 10:53:16;;;;;;;18.30;8.35;;;17.40;70.20;;;;;;5092877;28;20020;-73
2022/03/22 10:55:43;;;;;;;23.30;8.82;;;17.60;71.50;;;;;;5091634;28;20028;-74
2022/03/22 10:58:12;;;;;;;21.45;10.15;;;17.90;73.20;;;;;;5091572;28;20112;-74
2022/03/22 11:00:40;;;;;;;21.15;9.20;;;18.20;71.10;;;;;;5096755;28;20090;-74
2022/03/22 11:03:07;;;;;;;19.95;8.23;;;18.30;67.20;;;;;;5095654;28;20020;-74
2022/03/22 11:05:34;;;;;;;19.73;10.18;;;18.30;67.30;;;;;;5095548;28;20450;-73
2022/03/22 11:07:59;;;;;;;23.23;9.27;;;18.50;67.90;;;;;;5095432;28;20497;-73
2022/03/22 11:10:29;;;;;;;29.10;10.77;;;18.60;67.40;;;;;;5096751;28;20133;-74
2022/03/22 11:12:57;;;;;;;18.38;8.90;;;18.70;64.60;;;;;;5095446;28;20016;-74
2022/03/22 11:15:25;;;;;;;20.50;8.07;;;18.80;64.90;;;;;;5095384;28;20122;-74
2022/03/22 11:17:52;;;;;;;16.13;8.07;;;18.90;62.80;;;;;;5096561;28;20093;-74
2022/03/22 11:20:17;;;;;;;15.27;7.63;;;19.00;62.40;;;;;;5095139;28;20469;-74
2022/03/22 11:22:49;;;;;;;17.67;7.45;;;19.20;60.90;;;;;;5095194;28;20055;-74
2022/03/22 11:25:19;;;;;;;16.00;8.15;;;19.20;58.40;;;;;;5096392;28;20056;-74
2022/03/22 11:27:57;;;;;;;16.27;7.63;;;19.40;59.10;;;;;;5096376;28;20027;-74
2022/03/22 11:30:24;;;;;;;13.98;6.90;;;19.60;59.00;;;;;;5095189;28;20035;-74
2022/03/22 11:35:50;;;;;;;15.40;6.30;;;20.10;55.70;;;;;;5096441;28;20035;-74
2022/03/22 11:38:45;;;;;;;15.55;5.80;;;20.20;54.70;;;;;;5096359;28;20480;-73
2022/03/22 11:44:15;;;;;;;12.60;5.80;;;20.50;53.20;;;;;;5096465;28;20030;-74
2022/03/22 11:46:42;;;;;;;13.63;5.05;;;20.60;51.70;;;;;;5094851;28;20396;-73
2022/03/22 11:49:22;;;;;;;13.40;6.28;;;20.60;51.50;;;;;;5094663;28;20058;-74
2022/03/22 11:52:11;;;;;;;11.98;5.70;;;20.70;52.40;;;;;;5095960;28;20089;-74
2022/03/22 11:54:38;;;;;;;11.18;4.68;;;20.80;52.80;;;;;;5085032;28;20515;-74
2022/03/22 11:57:06;;;;;;;12.15;5.03;;;20.90;51.10;;;;;;5095861;28;20035;-74
2022/03/22 11:59:42;;;;;;;11.30;5.60;;;21.00;51.80;;;;;;5095695;28;20035;-74
2022/03/22 12:02:16;;;;;;;15.55;5.57;;;21.20;51.70;;;;;;5095895;28;20102;-74
2022/03/22 12:04:55;;;;;;;10.23;4.82;;;21.40;50.20;;;;;;5095999;28;20069;-74
2022/03/22 12:07:34;;;;;;;11.88;5.32;;;21.50;50.00;;;;;;5094397;28;20020;-74
2022/03/22 12:10:07;;;;;;;8.68;3.75;;;21.70;48.50;;;;;;5095493;28;20492;-74
2022/03/22 12:12:34;;;;;;;6.25;2.58;;;21.80;47.90;;;;;;5095917;28;20434;-73
2022/03/22 12:15:02;;;;;;;10.00;3.80;;;21.80;45.80;;;;;;5095438;28;20027;-74
2022/03/22 12:17:29;;;;;;;8.93;3.25;;;21.90;46.70;;;;;;5093860;28;20389;-74
2022/03/22 12:19:59;;;;;;;10.23;2.95;;;21.90;46.20;;;;;;5095226;28;20020;-73
2022/03/22 12:22:26;;;;;;;9.32;3.63;;;22.00;44.90;;;;;;5094020;28;20065;-73
2022/03/22 12:24:52;;;;;;;10.50;4.40;;;21.90;45.70;;;;;;5095809;28;20043;-74
2022/03/22 12:27:20;;;;;;;8.90;4.28;;;22.10;45.80;;;;;;5093883;28;20098;-74
2022/03/22 12:29:46;;;;;;;7.93;3.80;;;22.40;45.90;;;;;;5095417;28;20031;-74
2022/03/22 12:32:14;;;;;;;8.23;4.03;;;22.60;45.90;;;;;;5093947;28;20024;-74
2022/03/22 12:34:41;;;;;;;10.10;3.90;;;22.80;44.00;;;;;;5093928;28;20442;-74
2022/03/22 12:37:08;;;;;;;8.57;3.83;;;22.90;44.80;;;;;;5094930;28;20073;-74
2022/03/22 12:39:36;;;;;;;11.77;3.85;;;22.90;44.60;;;;;;5093668;28;20437;-74
2022/03/22 12:42:02;;;;;;;6.78;2.92;;;23.10;43.90;;;;;;5095024;28;20016;-74
2022/03/22 12:44:28;;;;;;;9.88;4.03;;;23.20;46.10;;;;;;5094831;28;20377;-75
2022/03/22 12:46:54;;;;;;;11.35;3.60;;;23.40;44.70;;;;;;5094809;28;20020;-73
2022/03/22 12:49:21;;;;;;;12.25;3.78;;;23.40;42.70;;;;;;5094871;28;20081;-73
2022/03/22 12:51:49;;;;;;;7.18;3.53;;;23.40;42.70;;;;;;5094796;28;20044;-75
2022/03/22 12:54:17;;;;;;;9.57;4.28;;;23.30;42.80;;;;;;5093508;28;20016;-74
2022/03/22 12:56:48;;;;;;;7.45;3.72;;;23.20;43.70;;;;;;5094965;28;20024;-74
2022/03/22 12:59:24;;;;;;;8.32;3.42;;;23.30;44.00;;;;;;5094537;28;20069;-74
2022/03/22 13:01:57;;;;;;;7.15;2.92;;;23.50;43.70;;;;;;5094611;28;20031;-74
2022/03/22 13:04:31;;;;;;;8.15;3.10;;;23.50;42.90;;;;;;5093352;28;20389;-73
2022/03/22 13:07:01;;;;;;;11.65;3.47;;;23.30;42.00;;;;;;5094557;28;20091;-74
2022/03/22 13:12:15;;;;;;;8.90;3.33;;;23.50;42.60;;;;;;5095438;28;20035;-74
2022/03/22 13:17:49;;;;;;;8.88;2.92;;;23.80;42.20;;;;;;5094418;28;20097;-74
2022/03/22 13:20:24;;;;;;;5.97;2.30;;;23.90;41.80;;;;;;5094701;28;20069;-73
2022/03/22 13:22:54;;;;;;;6.28;2.45;;;24.00;40.70;;;;;;5093832;28;20430;-73
2022/03/22 13:25:36;;;;;;;6.70;2.85;;;24.10;41.90;;;;;;5094298;28;20086;-74
2022/03/22 13:28:06;;;;;;;7.88;4.03;;;24.10;40.60;;;;;;5094228;28;20031;-73